メインページ
METAR-TAF:

METAR-TAF

空港 :

ワルシャワ, ポーランド

ワルシャワ・ショパン空港

緯度: 52-10N, 経度: 020-58E, 海抜: 106m

現時点の気象観測

当レポートは11分前の09:30(UTC)に作成
西の風 11kt、西/南西から北西の間で変化する
気温 9°C
湿度 49%
気圧 1023 hPa
視程10km以上
1,500メートル以下は雲なし、積乱雲なし

METAR: EPWA 250930Z 28011KT 240V310 CAVOK 09/M01 Q1023 NOSIG

時間: 10:41 (09:41 UTC)

予報

当レポートは4時間11分前の05:30(UTC)に作成
予報は25日の 06時(UTC)から 26日の 06時(UTC)まで有効
西の風 3kt
視程10km以上
1,500メートル以下は雲なし、積乱雲なし
25日の 08時(UTC)から 25日の 11時(UTC)まで徐々に
西の風 14kt
確率 40% :
25日の 11時(UTC)から 25日の 17時(UTC)まで一時的に
西の風 15kt、最大25ktの突風を伴う
25日の 17時(UTC)から 25日の 19時(UTC)まで徐々に
北/北西の風 12kt
25日の 23時(UTC)から 26日の 06時(UTC)まで一時的に
高度1200ftの千切れ雲あり

TAF: EPWA 250530Z 2506/2606 27003KT CAVOK BECMG 2508/2511 27014KT PROB40 TEMPO 2511/2517 28015G25KT BECMG 2517/2519 33012KT TEMPO 2523/2606 BKN012

4,000以上の空港の気象観測と天気予報(METAR報とTAF報)

利用可能な観測所は地図上に黄色い丸と赤い丸で示す。

丸の上にカーソルを重ねると観測所名を参照できる。

次にクリックすると気象観測と天気予報を参照できる。

マップの切り替え:黒色「×」印の緑ボタンをクリックして拡大、「-」印の緑ボタンをクリックして縮小、緑色の三角印をクリックして隣りの地図に切り替え


METAR-TAF: